createdAt,value
2023-05-24T00:00:19.233Z,12.25
2023-05-24T00:01:19.204Z,12.30
2023-05-24T00:02:19.208Z,12.30
2023-05-24T00:03:19.298Z,12.25
2023-05-24T00:04:19.266Z,12.46
2023-05-24T00:05:19.158Z,12.08
2023-05-24T00:06:19.155Z,12.51
2023-05-24T00:07:19.151Z,12.62
2023-05-24T00:08:19.134Z,12.19
2023-05-24T00:09:19.098Z,11.87
2023-05-24T00:10:19.087Z,11.92
2023-05-24T00:11:19.074Z,12.57
2023-05-24T00:12:19.090Z,12.19
2023-05-24T00:13:19.044Z,12.25
2023-05-24T00:14:19.034Z,12.46
2023-05-24T00:15:19.021Z,12.14
2023-05-24T00:16:19.034Z,12.08
2023-05-24T00:17:18.983Z,12.08
2023-05-24T00:18:18.999Z,12.57
2023-05-24T00:19:19.027Z,12.19
2023-05-24T00:20:19.035Z,12.08
2023-05-24T00:21:19.033Z,12.03
2023-05-24T00:22:18.929Z,12.51
2023-05-24T00:23:18.925Z,12.08
2023-05-24T00:24:18.887Z,12.25
2023-05-24T00:25:18.871Z,12.62
2023-05-24T00:26:18.935Z,12.25
2023-05-24T00:27:18.861Z,12.25
2023-05-24T00:28:18.824Z,11.92
2023-05-24T00:29:18.837Z,12.08
2023-05-24T00:30:18.806Z,11.92
2023-05-24T00:31:18.820Z,12.25
2023-05-24T00:32:18.802Z,12.08
2023-05-24T00:33:18.803Z,11.92
2023-05-24T00:34:18.763Z,12.08
2023-05-24T00:35:18.756Z,12.62
2023-05-24T00:36:18.764Z,12.14
2023-05-24T00:37:18.718Z,12.25
2023-05-24T00:38:18.707Z,11.87
2023-05-24T00:39:18.690Z,12.19
2023-05-24T00:40:18.691Z,12.03
2023-05-24T00:41:18.670Z,12.14
2023-05-24T00:42:18.650Z,12.25
2023-05-24T00:43:18.629Z,11.98
2023-05-24T00:44:18.634Z,12.08
2023-05-24T00:45:18.603Z,12.08
2023-05-24T00:46:18.622Z,12.08
2023-05-24T00:47:18.608Z,12.14
2023-05-24T00:48:18.632Z,12.03
2023-05-24T00:49:18.559Z,11.98
2023-05-24T00:50:18.550Z,12.03
2023-05-24T00:51:18.535Z,11.98
2023-05-24T00:52:18.520Z,12.25
2023-05-24T00:53:18.495Z,12.08
2023-05-24T00:54:18.506Z,11.87
2023-05-24T00:55:18.516Z,12.25
2023-05-24T00:56:18.464Z,12.08
2023-05-24T00:57:18.589Z,11.87
2023-05-24T00:58:18.469Z,12.14
2023-05-24T00:59:18.428Z,12.25
2023-05-24T01:00:18.412Z,12.08
2023-05-24T01:01:18.428Z,11.76
2023-05-24T01:02:18.430Z,12.08
2023-05-24T01:03:18.428Z,11.87
2023-05-24T01:04:18.360Z,12.30
2023-05-24T01:05:18.347Z,12.25
2023-05-24T01:06:18.322Z,12.03
2023-05-24T01:07:18.314Z,12.08
2023-05-24T01:08:18.412Z,12.30
2023-05-24T01:09:18.276Z,11.98
2023-05-24T01:10:18.275Z,12.08
2023-05-24T01:11:18.264Z,12.25
2023-05-24T01:12:18.282Z,11.87
2023-05-24T01:13:18.251Z,12.25
2023-05-24T01:14:18.265Z,12.19
2023-05-24T01:15:18.195Z,12.19
2023-05-24T01:16:18.277Z,12.19
2023-05-24T01:17:18.224Z,12.25
2023-05-24T01:18:18.171Z,11.87
2023-05-24T01:19:18.143Z,12.03
2023-05-24T01:20:18.211Z,12.30
2023-05-24T01:21:18.145Z,12.19
2023-05-24T01:22:18.151Z,11.92
2023-05-24T01:23:18.110Z,12.08
2023-05-24T01:24:18.107Z,11.87
2023-05-24T01:25:18.075Z,12.08
2023-05-24T01:26:18.078Z,12.25
2023-05-24T01:27:18.092Z,12.19
2023-05-24T01:28:18.034Z,12.14
2023-05-24T01:29:18.036Z,11.87
2023-05-24T01:30:18.009Z,11.71
2023-05-24T01:31:18.037Z,11.87
2023-05-24T01:32:17.997Z,12.19
2023-05-24T01:33:17.965Z,11.92
2023-05-24T01:34:17.980Z,11.87
2023-05-24T01:35:17.931Z,12.03
2023-05-24T01:36:17.949Z,12.03
2023-05-24T01:37:17.904Z,12.03
2023-05-24T01:38:17.921Z,12.30
2023-05-24T01:39:17.901Z,12.03
2023-05-24T01:40:17.886Z,11.92
2023-05-24T01:41:17.853Z,11.87
2023-05-24T01:42:17.857Z,12.25
2023-05-24T01:43:17.846Z,12.25
2023-05-24T01:44:17.823Z,11.66
2023-05-24T01:45:17.805Z,11.92
2023-05-24T01:46:17.803Z,12.25
2023-05-24T01:47:17.771Z,12.19
2023-05-24T01:48:17.857Z,12.08
2023-05-24T01:49:17.742Z,12.14
2023-05-24T01:50:17.758Z,11.82
2023-05-24T01:51:17.703Z,12.03
2023-05-24T01:52:17.737Z,11.71
2023-05-24T01:53:17.708Z,11.76
2023-05-24T01:54:17.714Z,11.98
2023-05-24T01:55:17.666Z,11.92
2023-05-24T01:56:17.659Z,12.08
2023-05-24T01:57:17.649Z,11.98
2023-05-24T01:58:17.659Z,11.92
2023-05-24T01:59:17.609Z,12.03
2023-05-24T02:00:17.601Z,11.98
2023-05-24T02:01:17.645Z,11.98
2023-05-24T02:02:17.639Z,11.98
2023-05-24T02:03:17.601Z,11.98
2023-05-24T02:04:17.574Z,11.92
2023-05-24T02:05:17.523Z,11.92
2023-05-24T02:06:17.575Z,11.92
2023-05-24T02:07:17.521Z,11.87
2023-05-24T02:08:17.490Z,12.08
2023-05-24T02:09:17.496Z,11.71
2023-05-24T02:10:17.463Z,11.92
2023-05-24T02:11:17.494Z,12.03
2023-05-24T02:12:17.447Z,11.87
2023-05-24T02:13:17.430Z,11.98
2023-05-24T02:14:17.466Z,11.87
2023-05-24T02:15:17.432Z,11.76
2023-05-24T02:16:17.441Z,12.08
2023-05-24T02:17:17.396Z,11.76
2023-05-24T02:18:17.397Z,11.87
2023-05-24T02:19:17.379Z,12.08
2023-05-24T02:20:17.501Z,12.03
2023-05-24T02:21:17.299Z,12.03
2023-05-24T02:22:17.339Z,11.98
2023-05-24T02:23:17.322Z,11.82
2023-05-24T02:24:17.275Z,11.92
2023-05-24T02:25:17.339Z,11.87
2023-05-24T02:26:17.258Z,11.98
2023-05-24T02:27:17.232Z,11.71
2023-05-24T02:28:17.222Z,11.87
2023-05-24T02:29:17.214Z,12.03
2023-05-24T02:30:17.225Z,12.08
2023-05-24T02:31:17.224Z,11.98
2023-05-24T02:32:17.192Z,11.82
2023-05-24T02:33:17.185Z,11.98
2023-05-24T02:34:17.175Z,12.03
2023-05-24T02:35:17.168Z,11.76
2023-05-24T02:36:17.104Z,11.98
2023-05-24T02:37:17.253Z,12.08
2023-05-24T02:38:17.120Z,11.82
2023-05-24T02:39:17.105Z,11.92
2023-05-24T02:40:17.105Z,11.55
2023-05-24T02:41:17.081Z,11.92
2023-05-24T02:42:17.026Z,11.76
2023-05-24T02:43:17.053Z,11.66
2023-05-24T02:44:17.010Z,12.03
2023-05-24T02:45:16.996Z,11.82
2023-05-24T02:46:17.044Z,11.87
2023-05-24T02:47:16.955Z,11.92
2023-05-24T02:48:17.001Z,11.92
2023-05-24T02:49:16.945Z,12.03
2023-05-24T02:50:16.932Z,11.71
2023-05-24T02:51:16.923Z,11.92
2023-05-24T02:52:16.906Z,11.92
2023-05-24T02:53:16.870Z,11.71
2023-05-24T02:54:16.865Z,11.82
2023-05-24T02:55:16.911Z,11.66
2023-05-24T02:56:16.836Z,11.87
2023-05-24T02:57:16.854Z,12.14
2023-05-24T02:58:16.896Z,11.92
2023-05-24T02:59:16.807Z,11.87
2023-05-24T03:00:16.822Z,11.92
2023-05-24T03:01:16.809Z,11.76
2023-05-24T03:02:16.759Z,11.44
2023-05-24T03:03:16.832Z,11.82
2023-05-24T03:04:16.780Z,12.03
2023-05-24T03:05:16.723Z,12.08
2023-05-24T03:06:16.720Z,12.03
2023-05-24T03:07:16.741Z,11.66
2023-05-24T03:08:16.688Z,11.87
2023-05-24T03:09:16.678Z,11.87
2023-05-24T03:10:16.634Z,12.03
2023-05-24T03:11:16.672Z,12.03
2023-05-24T03:12:16.636Z,11.71
2023-05-24T03:13:16.615Z,11.28
2023-05-24T03:14:16.629Z,11.92
2023-05-24T03:15:16.599Z,11.82
2023-05-24T03:16:16.603Z,11.66
2023-05-24T03:17:16.569Z,11.98
2023-05-24T03:18:16.557Z,11.55
2023-05-24T03:19:16.548Z,11.87
2023-05-24T03:20:16.544Z,11.82
2023-05-24T03:21:16.587Z,11.39
2023-05-24T03:22:16.490Z,11.87
2023-05-24T03:23:16.498Z,11.87
2023-05-24T03:24:16.453Z,11.33
2023-05-24T03:25:16.462Z,11.87
2023-05-24T03:26:16.445Z,11.92
2023-05-24T03:27:16.436Z,11.82
2023-05-24T03:28:16.409Z,11.76
2023-05-24T03:29:16.420Z,11.71
2023-05-24T03:30:16.420Z,11.87
2023-05-24T03:31:16.392Z,11.87
2023-05-24T03:32:16.347Z,11.82
2023-05-24T03:33:16.344Z,12.08
2023-05-24T03:34:16.328Z,11.33
2023-05-24T03:35:16.345Z,11.87
2023-05-24T03:36:16.302Z,11.87
2023-05-24T03:37:16.292Z,11.98
2023-05-24T03:38:16.301Z,11.92
2023-05-24T03:39:16.308Z,11.87
2023-05-24T03:40:16.322Z,11.87
2023-05-24T03:41:16.247Z,12.03
2023-05-24T03:42:16.235Z,11.66
2023-05-24T03:43:16.229Z,11.82
2023-05-24T03:44:16.212Z,11.28
2023-05-24T03:45:24.163Z,12.08
2023-05-24T03:46:17.287Z,11.87
2023-05-24T03:47:16.174Z,11.82
2023-05-24T03:48:16.145Z,11.87
2023-05-24T03:49:16.150Z,11.82
2023-05-24T03:50:16.112Z,11.98
2023-05-24T03:51:16.120Z,11.87
2023-05-24T03:52:16.109Z,11.98
2023-05-24T03:53:16.119Z,12.03
2023-05-24T03:54:16.067Z,11.87
2023-05-24T03:55:16.037Z,11.49
2023-05-24T03:56:16.055Z,11.71
2023-05-24T03:57:16.027Z,11.33
2023-05-24T03:58:16.011Z,11.98
2023-05-24T03:59:16.000Z,11.49
2023-05-24T04:00:15.991Z,11.39
2023-05-24T04:01:29.196Z,11.28
2023-05-24T04:02:16.953Z,11.49
2023-05-24T04:03:16.085Z,11.92
2023-05-24T04:04:15.940Z,12.08
2023-05-24T04:05:15.997Z,11.33
2023-05-24T04:06:17.543Z,12.08
2023-05-24T04:07:15.895Z,12.08
2023-05-24T04:08:15.873Z,11.49
2023-05-24T04:09:15.880Z,11.49
2023-05-24T04:10:15.878Z,11.82
2023-05-24T04:11:15.835Z,11.49
2023-05-24T04:12:15.818Z,11.66
2023-05-24T04:13:15.797Z,11.87
2023-05-24T04:14:15.818Z,11.71
2023-05-24T04:15:15.773Z,12.03
2023-05-24T04:16:15.786Z,11.87
2023-05-24T04:17:15.826Z,11.71
2023-05-24T04:18:15.886Z,11.44
2023-05-24T04:19:15.726Z,11.66
2023-05-24T04:20:15.739Z,11.71
2023-05-24T04:21:15.718Z,11.71
2023-05-24T04:22:15.704Z,12.03
2023-05-24T04:23:15.672Z,11.76
2023-05-24T04:24:15.652Z,11.76
2023-05-24T04:25:15.655Z,11.87
2023-05-24T04:26:15.679Z,11.44
2023-05-24T04:27:15.605Z,12.03
2023-05-24T04:28:15.648Z,11.28
2023-05-24T04:29:15.596Z,11.82
2023-05-24T04:30:15.585Z,11.66
2023-05-24T04:31:15.663Z,11.71
2023-05-24T04:32:15.553Z,11.39
2023-05-24T04:33:15.566Z,11.39
2023-05-24T04:34:15.506Z,11.44
2023-05-24T04:35:15.598Z,11.55
2023-05-24T04:36:15.485Z,11.87
2023-05-24T04:37:15.528Z,11.66
2023-05-24T04:38:15.506Z,11.66
2023-05-24T04:39:15.449Z,11.71
2023-05-24T04:40:15.447Z,11.82
2023-05-24T04:41:15.421Z,11.71
2023-05-24T04:42:15.453Z,11.87
2023-05-24T04:43:15.434Z,11.82
2023-05-24T04:44:15.391Z,11.71
2023-05-24T04:45:15.399Z,11.55
2023-05-24T04:46:15.377Z,11.76
2023-05-24T04:47:15.391Z,11.82
2023-05-24T04:48:15.314Z,11.82
2023-05-24T04:49:15.324Z,11.66
2023-05-24T04:50:15.296Z,11.49
2023-05-24T04:51:15.314Z,11.44
2023-05-24T04:52:15.282Z,11.87
2023-05-24T04:53:15.273Z,11.66
2023-05-24T04:54:15.256Z,11.87
2023-05-24T04:55:15.260Z,11.71
2023-05-24T04:56:15.229Z,11.28
2023-05-24T04:57:15.228Z,11.66
2023-05-24T04:58:15.205Z,11.28
2023-05-24T04:59:15.192Z,11.71
2023-05-24T05:00:15.180Z,11.82
2023-05-24T05:01:15.273Z,11.87
2023-05-24T05:02:15.164Z,11.76
2023-05-24T05:03:15.325Z,11.28
2023-05-24T05:04:15.150Z,11.33
2023-05-24T05:05:15.120Z,11.87
2023-05-24T05:06:15.092Z,11.71
2023-05-24T05:07:15.071Z,11.87
2023-05-24T05:08:15.076Z,11.87
2023-05-24T05:09:15.061Z,11.71
2023-05-24T05:10:15.036Z,11.39
2023-05-24T05:11:15.032Z,11.76
2023-05-24T05:12:14.991Z,11.39
2023-05-24T05:13:15.039Z,11.33
2023-05-24T05:14:14.986Z,11.82
2023-05-24T05:15:14.971Z,11.87
2023-05-24T05:16:14.973Z,11.82
2023-05-24T05:17:14.954Z,11.28
2023-05-24T05:18:15.024Z,11.44
2023-05-24T05:19:14.957Z,11.66
2023-05-24T05:20:14.928Z,11.71
2023-05-24T05:21:14.895Z,11.76
2023-05-24T05:22:14.877Z,11.33
2023-05-24T05:23:14.881Z,11.33
2023-05-24T05:24:14.858Z,11.23
2023-05-24T05:25:14.837Z,11.28
2023-05-24T05:26:14.832Z,11.44
2023-05-24T05:27:14.820Z,11.33
2023-05-24T05:28:14.811Z,11.44
2023-05-24T05:29:14.775Z,11.87
2023-05-24T05:30:14.780Z,11.82
2023-05-24T05:31:14.784Z,11.87
2023-05-24T05:32:14.843Z,11.44
2023-05-24T05:33:14.759Z,11.98
2023-05-24T05:34:14.699Z,11.76
2023-05-24T05:35:14.697Z,11.23
2023-05-24T05:36:14.688Z,11.17
2023-05-24T05:37:14.683Z,11.28
2023-05-24T05:38:14.667Z,11.28
2023-05-24T05:39:14.645Z,11.82
2023-05-24T05:40:14.648Z,11.12
2023-05-24T05:41:14.644Z,11.23
2023-05-24T05:42:14.613Z,11.06
2023-05-24T05:43:14.586Z,11.76
2023-05-24T05:44:14.578Z,11.33
2023-05-24T05:45:14.586Z,11.23
2023-05-24T05:46:14.562Z,11.44
2023-05-24T05:47:14.568Z,11.49
2023-05-24T05:48:14.532Z,11.82
2023-05-24T05:49:14.513Z,11.49
2023-05-24T05:50:14.482Z,11.39
2023-05-24T05:51:14.513Z,11.66
2023-05-24T05:52:14.475Z,11.82
2023-05-24T05:53:14.464Z,11.28
2023-05-24T05:54:14.537Z,11.44
2023-05-24T05:55:14.424Z,11.23
2023-05-24T05:56:14.426Z,11.71
2023-05-24T05:57:14.431Z,11.28
2023-05-24T05:58:14.404Z,11.12
2023-05-24T05:59:14.381Z,11.71
2023-05-24T06:00:14.411Z,11.82
2023-05-24T06:01:14.390Z,11.12
2023-05-24T06:02:14.409Z,11.28
2023-05-24T06:03:14.477Z,11.17
2023-05-24T06:04:14.459Z,11.33
2023-05-24T06:05:16.067Z,11.28
2023-05-24T06:06:14.285Z,11.28
2023-05-24T06:07:14.281Z,11.28
2023-05-24T06:08:14.255Z,11.71
2023-05-24T06:09:14.247Z,11.39
2023-05-24T06:10:14.250Z,11.28
2023-05-24T06:11:14.214Z,11.23
2023-05-24T06:12:14.201Z,11.55
2023-05-24T06:13:14.178Z,11.55
2023-05-24T06:14:14.169Z,11.44
2023-05-24T06:15:14.214Z,11.28
2023-05-24T06:16:14.165Z,11.49
2023-05-24T06:17:14.118Z,11.23
2023-05-24T06:18:14.105Z,11.23
2023-05-24T06:19:14.110Z,11.12
2023-05-24T06:20:14.193Z,11.49
2023-05-24T06:21:14.079Z,11.44
2023-05-24T06:22:14.044Z,11.06
2023-05-24T06:23:14.044Z,11.39
2023-05-24T06:24:14.056Z,11.49
2023-05-24T06:25:14.011Z,11.49
2023-05-24T06:26:14.020Z,11.49
2023-05-24T06:27:13.997Z,11.33
2023-05-24T06:28:13.959Z,11.49
2023-05-24T06:29:13.981Z,11.12
2023-05-24T06:30:13.979Z,11.44
2023-05-24T06:31:13.983Z,11.17
2023-05-24T06:32:13.907Z,11.28
2023-05-24T06:33:13.918Z,11.28
2023-05-24T06:34:13.885Z,11.33
2023-05-24T06:35:13.909Z,11.12
2023-05-24T06:36:13.846Z,11.49
2023-05-24T06:37:13.861Z,11.44
2023-05-24T06:38:13.839Z,11.12
2023-05-24T06:39:13.819Z,11.28
2023-05-24T06:40:13.804Z,11.23
2023-05-24T06:41:13.795Z,11.23
2023-05-24T06:42:13.795Z,11.39
2023-05-24T06:43:13.754Z,11.28
2023-05-24T06:44:13.769Z,11.33
2023-05-24T06:45:13.725Z,11.33
2023-05-24T06:46:13.734Z,11.12
2023-05-24T06:47:13.788Z,11.33
2023-05-24T06:48:13.771Z,11.33
2023-05-24T06:49:13.791Z,11.44
2023-05-24T06:50:13.714Z,11.28
2023-05-24T06:51:13.732Z,11.17
2023-05-24T06:52:13.665Z,11.28
2023-05-24T06:53:13.626Z,11.17
2023-05-24T06:54:13.642Z,11.44
2023-05-24T06:55:13.642Z,11.44
2023-05-24T06:56:13.618Z,11.44
2023-05-24T06:57:13.581Z,11.28
2023-05-24T06:58:13.566Z,11.44
2023-05-24T06:59:13.553Z,10.69
2023-05-24T07:00:13.550Z,10.74
2023-05-24T07:01:13.606Z,10.74
2023-05-24T07:02:13.537Z,10.69
2023-05-24T07:03:13.509Z,11.44
2023-05-24T07:04:13.526Z,11.12
2023-05-24T07:05:13.462Z,11.55
2023-05-24T07:06:13.453Z,11.39
2023-05-24T07:07:13.448Z,11.28
2023-05-24T07:08:13.426Z,11.23
2023-05-24T07:09:13.407Z,11.06
2023-05-24T07:10:13.672Z,11.17
2023-05-24T07:11:13.434Z,11.28
2023-05-24T07:12:13.378Z,11.28
2023-05-24T07:13:13.375Z,10.74
2023-05-24T07:14:13.345Z,11.44
2023-05-24T07:15:13.333Z,11.28
2023-05-24T07:16:13.312Z,11.12
2023-05-24T07:17:13.336Z,11.33
2023-05-24T07:18:13.307Z,11.12
2023-05-24T07:19:13.317Z,11.33
2023-05-24T07:20:13.306Z,11.44
2023-05-24T07:21:13.249Z,10.85
2023-05-24T07:22:13.236Z,11.12
2023-05-24T07:23:13.225Z,10.85
2023-05-24T07:24:15.446Z,11.44
2023-05-24T07:25:13.202Z,10.74
2023-05-24T07:26:13.196Z,10.74
2023-05-24T07:27:13.165Z,11.28
2023-05-24T07:28:13.159Z,11.28
2023-05-24T07:29:13.144Z,11.12
2023-05-24T07:30:23.534Z,10.74
2023-05-24T07:31:14.108Z,11.12
2023-05-24T07:32:13.155Z,11.23
2023-05-24T07:33:13.210Z,10.74
2023-05-24T07:34:13.090Z,11.28
2023-05-24T07:35:13.069Z,11.44
2023-05-24T07:36:13.055Z,11.28
2023-05-24T07:37:13.030Z,11.12
2023-05-24T07:38:13.052Z,10.69
2023-05-24T07:39:12.995Z,11.55
2023-05-24T07:40:13.011Z,10.74
2023-05-24T07:41:12.986Z,10.90
2023-05-24T07:42:12.959Z,10.69
2023-05-24T07:43:12.976Z,10.90
2023-05-24T07:44:12.938Z,10.90
2023-05-24T07:45:12.909Z,10.96
2023-05-24T07:46:13.000Z,11.12
2023-05-24T07:47:12.925Z,10.85
2023-05-24T07:48:12.942Z,11.28
2023-05-24T07:49:12.859Z,10.74
2023-05-24T07:50:12.877Z,10.74
2023-05-24T07:51:12.846Z,10.90
2023-05-24T07:52:12.854Z,10.85
2023-05-24T07:53:12.811Z,11.28
2023-05-24T07:54:12.823Z,11.06
2023-05-24T07:55:12.784Z,10.85
2023-05-24T07:56:12.762Z,11.28
2023-05-24T07:57:12.784Z,10.85
2023-05-24T07:58:12.744Z,10.80
2023-05-24T07:59:12.748Z,11.28
2023-05-24T08:00:12.725Z,10.85
2023-05-24T08:01:12.713Z,11.06
2023-05-24T08:02:12.716Z,11.33
2023-05-24T08:03:12.810Z,10.74
2023-05-24T08:04:12.674Z,11.28
2023-05-24T08:05:12.645Z,11.33
2023-05-24T08:06:12.705Z,10.90
2023-05-24T08:07:12.668Z,10.85
2023-05-24T08:08:12.614Z,10.69
2023-05-24T08:09:12.602Z,10.69
2023-05-24T08:10:12.697Z,11.17
2023-05-24T08:11:12.586Z,10.74
2023-05-24T08:12:14.325Z,11.12
2023-05-24T08:13:12.534Z,11.17
2023-05-24T08:14:12.523Z,11.17
2023-05-24T08:15:12.525Z,10.80
2023-05-24T08:16:12.535Z,10.74
2023-05-24T08:17:12.471Z,11.28
2023-05-24T08:18:12.531Z,11.23
2023-05-24T08:19:12.446Z,11.23
2023-05-24T08:20:12.569Z,10.53
2023-05-24T08:21:12.427Z,10.63
2023-05-24T08:22:12.424Z,10.69
2023-05-24T08:23:12.405Z,10.58
2023-05-24T08:24:12.419Z,10.58
2023-05-24T08:25:12.408Z,10.74
2023-05-24T08:26:12.376Z,10.85
2023-05-24T08:27:12.339Z,10.74
2023-05-24T08:28:12.389Z,11.12
2023-05-24T08:29:12.356Z,10.85
2023-05-24T08:30:12.328Z,11.23
2023-05-24T08:31:12.355Z,10.80
2023-05-24T08:32:12.564Z,10.47
2023-05-24T08:33:12.278Z,10.90
2023-05-24T08:34:12.262Z,10.90
2023-05-24T08:36:13.264Z,11.28
2023-05-24T08:37:14.188Z,11.12
2023-05-24T08:38:12.204Z,10.85
2023-05-24T08:39:12.193Z,10.74
2023-05-24T08:40:12.179Z,10.58
2023-05-24T08:41:12.151Z,11.23
2023-05-24T08:42:12.138Z,11.17
2023-05-24T08:43:12.187Z,11.01
2023-05-24T08:44:12.116Z,10.90
2023-05-24T08:45:12.117Z,11.23
2023-05-24T08:46:12.174Z,10.58
2023-05-24T08:47:12.088Z,10.85
2023-05-24T08:48:12.170Z,10.85
2023-05-24T08:49:12.054Z,10.74
2023-05-24T08:50:12.049Z,10.74
2023-05-24T08:51:12.022Z,10.74
2023-05-24T08:52:12.026Z,10.69
2023-05-24T08:53:12.002Z,10.80
2023-05-24T08:54:11.983Z,10.74
2023-05-24T08:55:11.968Z,10.69
2023-05-24T08:56:11.960Z,10.80
2023-05-24T08:57:12.002Z,10.85
2023-05-24T08:58:11.922Z,11.12
2023-05-24T08:59:11.920Z,10.63
2023-05-24T09:00:12.061Z,10.80
2023-05-24T09:01:11.953Z,10.69
2023-05-24T09:02:12.049Z,10.90
2023-05-24T09:03:11.982Z,10.58
2023-05-24T09:04:11.929Z,10.80
2023-05-24T09:05:11.848Z,10.74
2023-05-24T09:06:12.152Z,10.85
2023-05-24T09:07:11.815Z,10.80
2023-05-24T09:08:11.798Z,10.58
2023-05-24T09:09:11.776Z,10.58
2023-05-24T09:10:11.780Z,10.90
2023-05-24T09:11:11.938Z,10.85
2023-05-24T09:12:14.956Z,10.69
2023-05-24T09:13:12.722Z,10.69
2023-05-24T09:14:11.713Z,10.85
2023-05-24T09:15:11.731Z,10.74
2023-05-24T09:16:11.797Z,10.90
2023-05-24T09:17:11.670Z,10.69
2023-05-24T09:18:11.696Z,10.85
2023-05-24T09:19:11.635Z,10.63
2023-05-24T09:20:11.821Z,10.85
2023-05-24T09:21:11.617Z,10.58
2023-05-24T09:22:11.612Z,10.85
2023-05-24T09:23:11.575Z,10.37
2023-05-24T09:24:11.576Z,10.47
2023-05-24T09:25:11.581Z,10.90
2023-05-24T09:26:11.601Z,10.74
2023-05-24T09:27:11.533Z,10.47
2023-05-24T09:28:11.518Z,10.69
2023-05-24T09:29:11.518Z,10.80
2023-05-24T09:30:11.512Z,10.69
2023-05-24T09:31:11.537Z,10.74
2023-05-24T09:32:11.472Z,10.74
2023-05-24T09:33:11.477Z,10.85
2023-05-24T09:34:11.478Z,10.37
2023-05-24T09:35:11.434Z,10.85
2023-05-24T09:36:11.410Z,10.90
2023-05-24T09:37:11.389Z,10.37
2023-05-24T09:38:11.381Z,10.31
2023-05-24T09:39:11.401Z,10.53
2023-05-24T09:40:11.379Z,10.74
2023-05-24T09:41:11.330Z,10.69
2023-05-24T09:42:11.323Z,10.74
2023-05-24T09:43:11.315Z,10.53
2023-05-24T09:44:11.302Z,10.69
2023-05-24T09:45:11.292Z,10.80
2023-05-24T09:46:11.266Z,10.80
2023-05-24T09:47:11.351Z,10.37
2023-05-24T09:48:11.332Z,10.47
2023-05-24T09:49:11.254Z,10.37
2023-05-24T09:50:11.222Z,10.90
2023-05-24T09:51:11.231Z,10.58
2023-05-24T09:52:11.216Z,10.37
2023-05-24T09:53:11.198Z,10.53
2023-05-24T09:54:11.208Z,10.63
2023-05-24T09:55:11.168Z,10.63
2023-05-24T09:56:11.154Z,10.90
2023-05-24T09:57:11.114Z,10.37
2023-05-24T09:58:11.123Z,10.63
2023-05-24T09:59:11.093Z,10.96
2023-05-24T10:00:11.093Z,10.53
2023-05-24T10:01:11.279Z,10.37
2023-05-24T10:02:11.092Z,10.53
2023-05-24T10:03:11.217Z,10.58
2023-05-24T10:04:11.134Z,10.53
2023-05-24T10:05:11.001Z,10.47
2023-05-24T10:06:10.993Z,10.63
2023-05-24T10:07:11.007Z,10.58
2023-05-24T10:08:10.978Z,10.63
2023-05-24T10:09:10.949Z,10.63
2023-05-24T10:10:10.950Z,10.69
2023-05-24T10:11:10.939Z,10.53
2023-05-24T10:12:10.950Z,10.53
2023-05-24T10:13:10.904Z,10.58
2023-05-24T10:14:10.932Z,10.69
2023-05-24T10:15:10.904Z,10.47
2023-05-24T10:16:11.078Z,10.53
2023-05-24T10:17:11.023Z,10.74
2023-05-24T10:18:13.701Z,10.53
2023-05-24T10:19:10.817Z,10.58
2023-05-24T10:20:10.833Z,10.74
2023-05-24T10:21:10.855Z,10.47
2023-05-24T10:22:10.809Z,10.37
2023-05-24T10:23:10.823Z,10.53
2023-05-24T10:24:10.780Z,10.69
2023-05-24T10:25:10.776Z,10.47
2023-05-24T10:26:10.751Z,10.26
2023-05-24T10:27:10.709Z,10.47
2023-05-24T10:28:10.696Z,10.69
2023-05-24T10:29:10.707Z,10.74
2023-05-24T10:30:12.950Z,10.42
2023-05-24T10:31:10.718Z,10.74
2023-05-24T10:32:10.640Z,10.74
2023-05-24T10:33:10.688Z,10.53
2023-05-24T10:34:10.640Z,10.37
2023-05-24T10:35:10.656Z,10.42
2023-05-24T10:36:10.626Z,10.53
2023-05-24T10:37:10.573Z,10.53
2023-05-24T10:38:10.569Z,10.63
2023-05-24T10:39:10.563Z,10.58
2023-05-24T10:40:10.554Z,10.69
2023-05-24T10:41:10.510Z,10.10
2023-05-24T10:42:10.508Z,10.53
2023-05-24T10:43:10.518Z,10.69
2023-05-24T10:44:10.484Z,10.58
2023-05-24T10:45:10.486Z,10.58
2023-05-24T10:46:10.509Z,10.26
2023-05-24T10:47:10.433Z,10.47
2023-05-24T10:48:10.501Z,10.74
2023-05-24T10:49:10.426Z,10.15
2023-05-24T10:50:10.434Z,10.58
2023-05-24T10:51:10.393Z,10.47
2023-05-24T10:52:10.418Z,10.15
2023-05-24T10:53:10.353Z,10.69
2023-05-24T10:54:10.383Z,10.47
2023-05-24T10:55:10.346Z,10.42
2023-05-24T10:56:10.309Z,10.31
2023-05-24T10:57:10.300Z,10.15
2023-05-24T10:58:10.283Z,10.31
2023-05-24T10:59:10.402Z,10.37
2023-05-24T11:00:13.645Z,10.37
2023-05-24T11:01:11.283Z,10.31
2023-05-24T11:02:10.357Z,10.26
2023-05-24T11:03:10.280Z,10.31
2023-05-24T11:04:10.239Z,10.37
2023-05-24T11:05:10.210Z,10.15
2023-05-24T11:06:10.176Z,10.21
2023-05-24T11:07:10.170Z,10.26
2023-05-24T11:08:10.170Z,10.15
2023-05-24T11:09:10.151Z,10.15
2023-05-24T11:10:10.129Z,10.15
2023-05-24T11:12:10.129Z,10.31
2023-05-24T11:13:10.120Z,10.37
2023-05-24T11:14:10.071Z,10.31
2023-05-24T11:15:10.090Z,10.37
2023-05-24T11:16:10.080Z,10.15
2023-05-24T11:17:10.063Z,10.37
2023-05-24T11:18:10.080Z,10.53
2023-05-24T11:19:10.029Z,10.53
2023-05-24T11:20:10.125Z,10.42
2023-05-24T11:21:09.978Z,10.37
2023-05-24T11:22:10.013Z,10.47
2023-05-24T11:23:09.968Z,10.31
2023-05-24T11:24:09.946Z,10.37
2023-05-24T11:25:09.923Z,10.53
2023-05-24T11:26:09.932Z,10.47
2023-05-24T11:27:09.914Z,10.37
2023-05-24T11:28:09.913Z,10.15
2023-05-24T11:29:09.887Z,10.10
2023-05-24T11:30:09.889Z,10.37
2023-05-24T11:31:09.920Z,10.53
2023-05-24T11:32:09.967Z,10.10
2023-05-24T11:33:09.872Z,10.47
2023-05-24T11:34:09.804Z,10.31
2023-05-24T11:35:09.796Z,10.31
2023-05-24T11:36:09.832Z,10.53
2023-05-24T11:37:09.782Z,10.47
2023-05-24T11:38:09.743Z,10.31
2023-05-24T11:39:09.762Z,10.37
2023-05-24T11:40:09.773Z,10.37
2023-05-24T11:41:09.709Z,10.37
2023-05-24T11:42:09.694Z,10.10
2023-05-24T11:43:09.697Z,10.47
2023-05-24T11:44:09.652Z,10.10
2023-05-24T11:45:09.664Z,10.15
2023-05-24T11:46:09.711Z,10.10
2023-05-24T11:47:09.637Z,10.04
2023-05-24T11:48:09.660Z,10.10
2023-05-24T11:49:09.755Z,9.94
2023-05-24T11:50:09.660Z,10.47
2023-05-24T11:51:09.573Z,10.15
2023-05-24T11:52:09.545Z,10.47
2023-05-24T11:53:09.538Z,10.04
2023-05-24T11:54:09.524Z,10.15
2023-05-24T11:55:09.517Z,10.10
2023-05-24T11:56:09.512Z,10.37
2023-05-24T11:57:09.498Z,10.37
2023-05-24T11:58:09.487Z,10.04
2023-05-24T11:59:09.515Z,10.47
2023-05-24T12:00:09.505Z,10.10
2023-05-24T12:01:09.438Z,10.04
2023-05-24T12:02:09.520Z,10.15
2023-05-24T12:03:09.532Z,10.15
2023-05-24T12:04:09.532Z,10.31
2023-05-24T12:05:09.404Z,10.15
2023-05-24T12:06:09.375Z,10.53
2023-05-24T12:07:09.364Z,10.15
2023-05-24T12:08:11.782Z,9.99
2023-05-24T12:09:09.323Z,10.31
2023-05-24T12:10:09.330Z,10.10
2023-05-24T12:11:09.300Z,10.53
2023-05-24T12:12:09.287Z,10.10
2023-05-24T12:13:09.299Z,10.15
2023-05-24T12:14:09.257Z,10.37
2023-05-24T12:15:09.247Z,10.47
2023-05-24T12:16:09.263Z,9.88
2023-05-24T12:17:09.250Z,10.15
2023-05-24T12:18:09.284Z,10.31
2023-05-24T12:19:16.890Z,10.10
2023-05-24T12:20:10.282Z,10.31
2023-05-24T12:21:09.166Z,10.21
2023-05-24T12:22:09.180Z,10.26
2023-05-24T12:23:09.153Z,9.94
2023-05-24T12:24:09.120Z,10.21
2023-05-24T12:25:09.103Z,10.10
2023-05-24T12:26:09.101Z,10.15
2023-05-24T12:27:09.217Z,10.37
2023-05-24T12:28:09.071Z,10.15
2023-05-24T12:29:09.049Z,10.26
2023-05-24T12:30:09.101Z,10.31
2023-05-24T12:31:09.061Z,10.31
2023-05-24T12:32:09.027Z,10.31
2023-05-24T12:33:09.025Z,10.10
2023-05-24T12:34:08.993Z,10.31
2023-05-24T12:35:08.977Z,9.94
2023-05-24T12:36:08.983Z,10.10
2023-05-24T12:37:08.970Z,10.31
2023-05-24T12:38:08.922Z,10.21
2023-05-24T12:39:08.917Z,10.04
2023-05-24T12:40:08.891Z,10.10
2023-05-24T12:41:13.756Z,9.94
2023-05-24T12:42:09.871Z,10.10
2023-05-24T12:43:08.872Z,10.15
2023-05-24T12:44:08.847Z,10.04
2023-05-24T12:45:08.849Z,9.78
2023-05-24T12:46:08.827Z,10.21
2023-05-24T12:47:09.167Z,10.10
2023-05-24T12:48:08.883Z,10.37
2023-05-24T12:49:08.782Z,10.21
2023-05-24T12:50:08.830Z,10.15
2023-05-24T12:51:08.766Z,10.04
2023-05-24T12:52:08.733Z,9.99
2023-05-24T12:53:08.733Z,10.10
2023-05-24T12:54:08.702Z,10.47